<?xml version="1.0" encoding="UTF-8" standalone="no" ?>
<gpx xmlns="http://www.topografix.com/GPX/1/1" xmlns:xsi="http://www.w3.org/2001/XMLSchema-instance" xsi:schemaLocation="http://www.topografix.com/GPX/1/1 http://www.topografix.com/GPX/1/1/gpx.xsd" version="1.1" creator="VisuGPX - https://www.visugpx.com">
  <metadata>
    <name>Coudoux plateau Chemin de Cauvet</name>
  </metadata>
  <wpt lat="43.56943" lon="5.2814">
    <ele>277</ele>
    <name><![CDATA[Point Taichu]]></name>
    <desc><![CDATA[]]></desc>
  </wpt>
  <wpt lat="43.56916" lon="5.27263">
    <ele>255.5</ele>
    <name><![CDATA[Point Taichi]]></name>
    <desc><![CDATA[]]></desc>
  </wpt>
  <trk>
    <name><![CDATA[Coudoux plateau CH de Cauvet]]></name>
    <trkseg>
      <trkpt lat="43.56545" lon="5.2888">
        <ele>248</ele>
        <time>2020-05-19T12:08:56Z</time>
      </trkpt>
      <trkpt lat="43.56551" lon="5.28872">
        <ele>263</ele>
        <time>2020-05-19T12:12:34Z</time>
      </trkpt>
      <trkpt lat="43.56555" lon="5.28859">
        <ele>265</ele>
        <time>2020-05-19T12:12:46Z</time>
      </trkpt>
      <trkpt lat="43.56559" lon="5.28845">
        <ele>265</ele>
        <time>2020-05-19T12:12:58Z</time>
      </trkpt>
      <trkpt lat="43.56561" lon="5.28833">
        <ele>264</ele>
        <time>2020-05-19T12:13:06Z</time>
      </trkpt>
      <trkpt lat="43.56565" lon="5.28819">
        <ele>264</ele>
        <time>2020-05-19T12:13:17Z</time>
      </trkpt>
      <trkpt lat="43.56568" lon="5.28808">
        <ele>264</ele>
        <time>2020-05-19T12:13:25Z</time>
      </trkpt>
      <trkpt lat="43.56573" lon="5.28793">
        <ele>265</ele>
        <time>2020-05-19T12:13:36Z</time>
      </trkpt>
      <trkpt lat="43.56576" lon="5.28782">
        <ele>266</ele>
        <time>2020-05-19T12:13:45Z</time>
      </trkpt>
      <trkpt lat="43.56579" lon="5.28766">
        <ele>266</ele>
        <time>2020-05-19T12:13:57Z</time>
      </trkpt>
      <trkpt lat="43.56583" lon="5.28754">
        <ele>266</ele>
        <time>2020-05-19T12:14:06Z</time>
      </trkpt>
      <trkpt lat="43.56584" lon="5.28741">
        <ele>267</ele>
        <time>2020-05-19T12:14:16Z</time>
      </trkpt>
      <trkpt lat="43.56586" lon="5.28725">
        <ele>267</ele>
        <time>2020-05-19T12:14:28Z</time>
      </trkpt>
      <trkpt lat="43.56587" lon="5.28709">
        <ele>266</ele>
        <time>2020-05-19T12:14:40Z</time>
      </trkpt>
      <trkpt lat="43.56588" lon="5.28697">
        <ele>267</ele>
        <time>2020-05-19T12:14:49Z</time>
      </trkpt>
      <trkpt lat="43.56589" lon="5.28683">
        <ele>267</ele>
        <time>2020-05-19T12:14:59Z</time>
      </trkpt>
      <trkpt lat="43.5659" lon="5.28671">
        <ele>269</ele>
        <time>2020-05-19T12:15:09Z</time>
      </trkpt>
      <trkpt lat="43.56591" lon="5.28658">
        <ele>268</ele>
        <time>2020-05-19T12:15:18Z</time>
      </trkpt>
      <trkpt lat="43.56589" lon="5.28645">
        <ele>268</ele>
        <time>2020-05-19T12:15:29Z</time>
      </trkpt>
      <trkpt lat="43.56587" lon="5.28632">
        <ele>269</ele>
        <time>2020-05-19T12:15:42Z</time>
      </trkpt>
      <trkpt lat="43.56585" lon="5.28619">
        <ele>269</ele>
        <time>2020-05-19T12:15:52Z</time>
      </trkpt>
      <trkpt lat="43.56582" lon="5.28606">
        <ele>269</ele>
        <time>2020-05-19T12:16:02Z</time>
      </trkpt>
      <trkpt lat="43.56581" lon="5.28593">
        <ele>268</ele>
        <time>2020-05-19T12:16:11Z</time>
      </trkpt>
      <trkpt lat="43.5658" lon="5.2858">
        <ele>269</ele>
        <time>2020-05-19T12:16:20Z</time>
      </trkpt>
      <trkpt lat="43.5658" lon="5.28567">
        <ele>268</ele>
        <time>2020-05-19T12:16:29Z</time>
      </trkpt>
      <trkpt lat="43.5658" lon="5.28554">
        <ele>269</ele>
        <time>2020-05-19T12:16:38Z</time>
      </trkpt>
      <trkpt lat="43.56581" lon="5.2854">
        <ele>271</ele>
        <time>2020-05-19T12:16:48Z</time>
      </trkpt>
      <trkpt lat="43.56584" lon="5.28527">
        <ele>273</ele>
        <time>2020-05-19T12:17:02Z</time>
      </trkpt>
      <trkpt lat="43.56585" lon="5.28515">
        <ele>272</ele>
        <time>2020-05-19T12:17:11Z</time>
      </trkpt>
      <trkpt lat="43.56587" lon="5.28502">
        <ele>272</ele>
        <time>2020-05-19T12:17:20Z</time>
      </trkpt>
      <trkpt lat="43.5659" lon="5.28489">
        <ele>273</ele>
        <time>2020-05-19T12:17:29Z</time>
      </trkpt>
      <trkpt lat="43.56591" lon="5.28476">
        <ele>273</ele>
        <time>2020-05-19T12:17:38Z</time>
      </trkpt>
      <trkpt lat="43.56592" lon="5.28463">
        <ele>272</ele>
        <time>2020-05-19T12:17:47Z</time>
      </trkpt>
      <trkpt lat="43.56593" lon="5.28449">
        <ele>269</ele>
        <time>2020-05-19T12:17:56Z</time>
      </trkpt>
      <trkpt lat="43.56592" lon="5.28436">
        <ele>270</ele>
        <time>2020-05-19T12:18:06Z</time>
      </trkpt>
      <trkpt lat="43.56591" lon="5.28423">
        <ele>269</ele>
        <time>2020-05-19T12:18:14Z</time>
      </trkpt>
      <trkpt lat="43.56588" lon="5.28411">
        <ele>269</ele>
        <time>2020-05-19T12:18:24Z</time>
      </trkpt>
      <trkpt lat="43.56586" lon="5.28399">
        <ele>268</ele>
        <time>2020-05-19T12:18:32Z</time>
      </trkpt>
      <trkpt lat="43.56583" lon="5.28386">
        <ele>269</ele>
        <time>2020-05-19T12:18:41Z</time>
      </trkpt>
      <trkpt lat="43.5658" lon="5.28373">
        <ele>268</ele>
        <time>2020-05-19T12:18:50Z</time>
      </trkpt>
      <trkpt lat="43.56577" lon="5.28361">
        <ele>268</ele>
        <time>2020-05-19T12:18:58Z</time>
      </trkpt>
      <trkpt lat="43.56574" lon="5.28348">
        <ele>268</ele>
        <time>2020-05-19T12:19:06Z</time>
      </trkpt>
      <trkpt lat="43.56573" lon="5.28335">
        <ele>268</ele>
        <time>2020-05-19T12:19:14Z</time>
      </trkpt>
      <trkpt lat="43.56572" lon="5.28321">
        <ele>267</ele>
        <time>2020-05-19T12:19:23Z</time>
      </trkpt>
      <trkpt lat="43.56571" lon="5.28309">
        <ele>268</ele>
        <time>2020-05-19T12:19:32Z</time>
      </trkpt>
      <trkpt lat="43.56571" lon="5.28296">
        <ele>266</ele>
        <time>2020-05-19T12:19:42Z</time>
      </trkpt>
      <trkpt lat="43.56571" lon="5.28284">
        <ele>265</ele>
        <time>2020-05-19T12:19:50Z</time>
      </trkpt>
      <trkpt lat="43.56572" lon="5.2827">
        <ele>265</ele>
        <time>2020-05-19T12:19:59Z</time>
      </trkpt>
      <trkpt lat="43.56573" lon="5.28257">
        <ele>264</ele>
        <time>2020-05-19T12:20:08Z</time>
      </trkpt>
      <trkpt lat="43.56574" lon="5.28244">
        <ele>264</ele>
        <time>2020-05-19T12:20:16Z</time>
      </trkpt>
      <trkpt lat="43.56576" lon="5.2823">
        <ele>266</ele>
        <time>2020-05-19T12:20:51Z</time>
      </trkpt>
      <trkpt lat="43.56577" lon="5.28218">
        <ele>266</ele>
        <time>2020-05-19T12:21:01Z</time>
      </trkpt>
      <trkpt lat="43.56579" lon="5.28204">
        <ele>266</ele>
        <time>2020-05-19T12:21:11Z</time>
      </trkpt>
      <trkpt lat="43.5658" lon="5.28192">
        <ele>265</ele>
        <time>2020-05-19T12:21:20Z</time>
      </trkpt>
      <trkpt lat="43.56581" lon="5.28178">
        <ele>264</ele>
        <time>2020-05-19T12:21:29Z</time>
      </trkpt>
      <trkpt lat="43.56583" lon="5.28165">
        <ele>264</ele>
        <time>2020-05-19T12:21:38Z</time>
      </trkpt>
      <trkpt lat="43.56584" lon="5.28152">
        <ele>263</ele>
        <time>2020-05-19T12:21:47Z</time>
      </trkpt>
      <trkpt lat="43.56587" lon="5.28139">
        <ele>263</ele>
        <time>2020-05-19T12:21:57Z</time>
      </trkpt>
      <trkpt lat="43.56589" lon="5.28126">
        <ele>262</ele>
        <time>2020-05-19T12:22:07Z</time>
      </trkpt>
      <trkpt lat="43.5659" lon="5.28113">
        <ele>261</ele>
        <time>2020-05-19T12:22:16Z</time>
      </trkpt>
      <trkpt lat="43.56593" lon="5.281">
        <ele>262</ele>
        <time>2020-05-19T12:22:25Z</time>
      </trkpt>
      <trkpt lat="43.56596" lon="5.28088">
        <ele>262</ele>
        <time>2020-05-19T12:22:34Z</time>
      </trkpt>
      <trkpt lat="43.56598" lon="5.28075">
        <ele>262</ele>
        <time>2020-05-19T12:22:43Z</time>
      </trkpt>
      <trkpt lat="43.566" lon="5.28062">
        <ele>261</ele>
        <time>2020-05-19T12:22:53Z</time>
      </trkpt>
      <trkpt lat="43.56604" lon="5.2805">
        <ele>262</ele>
        <time>2020-05-19T12:23:01Z</time>
      </trkpt>
      <trkpt lat="43.56606" lon="5.28037">
        <ele>262</ele>
        <time>2020-05-19T12:23:10Z</time>
      </trkpt>
      <trkpt lat="43.5661" lon="5.28025">
        <ele>263</ele>
        <time>2020-05-19T12:23:21Z</time>
      </trkpt>
      <trkpt lat="43.56614" lon="5.28013">
        <ele>263</ele>
        <time>2020-05-19T12:23:30Z</time>
      </trkpt>
      <trkpt lat="43.56619" lon="5.28001">
        <ele>266</ele>
        <time>2020-05-19T12:23:39Z</time>
      </trkpt>
      <trkpt lat="43.56624" lon="5.2799">
        <ele>267</ele>
        <time>2020-05-19T12:23:47Z</time>
      </trkpt>
      <trkpt lat="43.56627" lon="5.27978">
        <ele>265</ele>
        <time>2020-05-19T12:23:57Z</time>
      </trkpt>
      <trkpt lat="43.56629" lon="5.27966">
        <ele>262</ele>
        <time>2020-05-19T12:24:04Z</time>
      </trkpt>
      <trkpt lat="43.56631" lon="5.27953">
        <ele>262</ele>
        <time>2020-05-19T12:24:13Z</time>
      </trkpt>
      <trkpt lat="43.56634" lon="5.27941">
        <ele>263</ele>
        <time>2020-05-19T12:24:22Z</time>
      </trkpt>
      <trkpt lat="43.56637" lon="5.27928">
        <ele>263</ele>
        <time>2020-05-19T12:24:30Z</time>
      </trkpt>
      <trkpt lat="43.5664" lon="5.27915">
        <ele>263</ele>
        <time>2020-05-19T12:24:38Z</time>
      </trkpt>
      <trkpt lat="43.56644" lon="5.27904">
        <ele>256</ele>
        <time>2020-05-19T12:25:42Z</time>
      </trkpt>
      <trkpt lat="43.56652" lon="5.27897">
        <ele>258</ele>
        <time>2020-05-19T12:25:54Z</time>
      </trkpt>
      <trkpt lat="43.56661" lon="5.279">
        <ele>259</ele>
        <time>2020-05-19T12:26:07Z</time>
      </trkpt>
      <trkpt lat="43.56669" lon="5.27907">
        <ele>259</ele>
        <time>2020-05-19T12:26:17Z</time>
      </trkpt>
      <trkpt lat="43.56676" lon="5.27916">
        <ele>258</ele>
        <time>2020-05-19T12:26:27Z</time>
      </trkpt>
      <trkpt lat="43.56683" lon="5.27924">
        <ele>259</ele>
        <time>2020-05-19T12:26:37Z</time>
      </trkpt>
      <trkpt lat="43.5669" lon="5.27933">
        <ele>260</ele>
        <time>2020-05-19T12:26:51Z</time>
      </trkpt>
      <trkpt lat="43.56699" lon="5.27938">
        <ele>263</ele>
        <time>2020-05-19T12:28:52Z</time>
      </trkpt>
      <trkpt lat="43.56706" lon="5.27945">
        <ele>261</ele>
        <time>2020-05-19T12:29:01Z</time>
      </trkpt>
      <trkpt lat="43.56714" lon="5.27954">
        <ele>261</ele>
        <time>2020-05-19T12:29:12Z</time>
      </trkpt>
      <trkpt lat="43.56722" lon="5.27962">
        <ele>263</ele>
        <time>2020-05-19T12:29:21Z</time>
      </trkpt>
      <trkpt lat="43.5673" lon="5.27968">
        <ele>263</ele>
        <time>2020-05-19T12:29:30Z</time>
      </trkpt>
      <trkpt lat="43.56738" lon="5.27977">
        <ele>264</ele>
        <time>2020-05-19T12:29:40Z</time>
      </trkpt>
      <trkpt lat="43.56744" lon="5.27985">
        <ele>265</ele>
        <time>2020-05-19T12:29:49Z</time>
      </trkpt>
      <trkpt lat="43.56753" lon="5.27992">
        <ele>266</ele>
        <time>2020-05-19T12:29:58Z</time>
      </trkpt>
      <trkpt lat="43.5676" lon="5.28">
        <ele>265</ele>
        <time>2020-05-19T12:30:07Z</time>
      </trkpt>
      <trkpt lat="43.56769" lon="5.28006">
        <ele>264</ele>
        <time>2020-05-19T12:30:16Z</time>
      </trkpt>
      <trkpt lat="43.56777" lon="5.28015">
        <ele>264</ele>
        <time>2020-05-19T12:30:25Z</time>
      </trkpt>
      <trkpt lat="43.56785" lon="5.28021">
        <ele>265</ele>
        <time>2020-05-19T12:30:34Z</time>
      </trkpt>
      <trkpt lat="43.56793" lon="5.28026">
        <ele>265</ele>
        <time>2020-05-19T12:30:42Z</time>
      </trkpt>
      <trkpt lat="43.56802" lon="5.28034">
        <ele>267</ele>
        <time>2020-05-19T12:30:52Z</time>
      </trkpt>
      <trkpt lat="43.5681" lon="5.2804">
        <ele>268</ele>
        <time>2020-05-19T12:31:02Z</time>
      </trkpt>
      <trkpt lat="43.56817" lon="5.28046">
        <ele>269</ele>
        <time>2020-05-19T12:31:11Z</time>
      </trkpt>
      <trkpt lat="43.56826" lon="5.28052">
        <ele>268</ele>
        <time>2020-05-19T12:31:20Z</time>
      </trkpt>
      <trkpt lat="43.56835" lon="5.28058">
        <ele>268</ele>
        <time>2020-05-19T12:31:29Z</time>
      </trkpt>
      <trkpt lat="43.56843" lon="5.28065">
        <ele>269</ele>
        <time>2020-05-19T12:31:41Z</time>
      </trkpt>
      <trkpt lat="43.56852" lon="5.28071">
        <ele>270</ele>
        <time>2020-05-19T12:31:50Z</time>
      </trkpt>
      <trkpt lat="43.5686" lon="5.28076">
        <ele>270</ele>
        <time>2020-05-19T12:31:59Z</time>
      </trkpt>
      <trkpt lat="43.56869" lon="5.28083">
        <ele>271</ele>
        <time>2020-05-19T12:32:09Z</time>
      </trkpt>
      <trkpt lat="43.56878" lon="5.28089">
        <ele>270</ele>
        <time>2020-05-19T12:32:18Z</time>
      </trkpt>
      <trkpt lat="43.56886" lon="5.28096">
        <ele>270</ele>
        <time>2020-05-19T12:32:27Z</time>
      </trkpt>
      <trkpt lat="43.56894" lon="5.28102">
        <ele>270</ele>
        <time>2020-05-19T12:32:38Z</time>
      </trkpt>
      <trkpt lat="43.56902" lon="5.28109">
        <ele>271</ele>
        <time>2020-05-19T12:32:45Z</time>
      </trkpt>
      <trkpt lat="43.5691" lon="5.28115">
        <ele>272</ele>
        <time>2020-05-19T12:33:01Z</time>
      </trkpt>
      <trkpt lat="43.56918" lon="5.28122">
        <ele>272</ele>
        <time>2020-05-19T12:33:12Z</time>
      </trkpt>
      <trkpt lat="43.56927" lon="5.28124">
        <ele>273</ele>
        <time>2020-05-19T12:33:18Z</time>
      </trkpt>
      <trkpt lat="43.56935" lon="5.28132">
        <ele>274</ele>
        <time>2020-05-19T12:33:29Z</time>
      </trkpt>
      <trkpt lat="43.56943" lon="5.2814">
        <ele>274</ele>
        <time>2020-05-19T12:33:39Z</time>
      </trkpt>
      <trkpt lat="43.5695" lon="5.28147">
        <ele>274</ele>
        <time>2020-05-19T12:34:16Z</time>
      </trkpt>
      <trkpt lat="43.56959" lon="5.28151">
        <ele>275</ele>
        <time>2020-05-19T12:34:28Z</time>
      </trkpt>
      <trkpt lat="43.56967" lon="5.28158">
        <ele>274</ele>
        <time>2020-05-19T12:34:39Z</time>
      </trkpt>
      <trkpt lat="43.56976" lon="5.28161">
        <ele>272</ele>
        <time>2020-05-19T12:34:49Z</time>
      </trkpt>
      <trkpt lat="43.56984" lon="5.28169">
        <ele>271</ele>
        <time>2020-05-19T12:35:00Z</time>
      </trkpt>
      <trkpt lat="43.56993" lon="5.28174">
        <ele>272</ele>
        <time>2020-05-19T12:35:11Z</time>
      </trkpt>
      <trkpt lat="43.57001" lon="5.28181">
        <ele>273</ele>
        <time>2020-05-19T12:35:20Z</time>
      </trkpt>
      <trkpt lat="43.57009" lon="5.28186">
        <ele>274</ele>
        <time>2020-05-19T12:35:29Z</time>
      </trkpt>
      <trkpt lat="43.57017" lon="5.28192">
        <ele>274</ele>
        <time>2020-05-19T12:35:39Z</time>
      </trkpt>
      <trkpt lat="43.57026" lon="5.28199">
        <ele>273</ele>
        <time>2020-05-19T12:35:49Z</time>
      </trkpt>
      <trkpt lat="43.57034" lon="5.28206">
        <ele>274</ele>
        <time>2020-05-19T12:36:00Z</time>
      </trkpt>
      <trkpt lat="43.57042" lon="5.28212">
        <ele>273</ele>
        <time>2020-05-19T12:36:10Z</time>
      </trkpt>
      <trkpt lat="43.57051" lon="5.28217">
        <ele>275</ele>
        <time>2020-05-19T12:36:18Z</time>
      </trkpt>
      <trkpt lat="43.57059" lon="5.28223">
        <ele>276</ele>
        <time>2020-05-19T12:36:28Z</time>
      </trkpt>
      <trkpt lat="43.57067" lon="5.28227">
        <ele>275</ele>
        <time>2020-05-19T12:36:38Z</time>
      </trkpt>
      <trkpt lat="43.57075" lon="5.28236">
        <ele>273</ele>
        <time>2020-05-19T12:36:50Z</time>
      </trkpt>
      <trkpt lat="43.57084" lon="5.28241">
        <ele>274</ele>
        <time>2020-05-19T12:36:59Z</time>
      </trkpt>
      <trkpt lat="43.57093" lon="5.28248">
        <ele>274</ele>
        <time>2020-05-19T12:37:09Z</time>
      </trkpt>
      <trkpt lat="43.57101" lon="5.28253">
        <ele>274</ele>
        <time>2020-05-19T12:37:18Z</time>
      </trkpt>
      <trkpt lat="43.57109" lon="5.28259">
        <ele>274</ele>
        <time>2020-05-19T12:37:27Z</time>
      </trkpt>
      <trkpt lat="43.57117" lon="5.28265">
        <ele>273</ele>
        <time>2020-05-19T12:37:37Z</time>
      </trkpt>
      <trkpt lat="43.57125" lon="5.2827">
        <ele>272</ele>
        <time>2020-05-19T12:37:46Z</time>
      </trkpt>
      <trkpt lat="43.57134" lon="5.28277">
        <ele>273</ele>
        <time>2020-05-19T12:37:56Z</time>
      </trkpt>
      <trkpt lat="43.57142" lon="5.28284">
        <ele>271</ele>
        <time>2020-05-19T12:38:07Z</time>
      </trkpt>
      <trkpt lat="43.57151" lon="5.2829">
        <ele>271</ele>
        <time>2020-05-19T12:38:18Z</time>
      </trkpt>
      <trkpt lat="43.57159" lon="5.28296">
        <ele>271</ele>
        <time>2020-05-19T12:38:28Z</time>
      </trkpt>
      <trkpt lat="43.57167" lon="5.28302">
        <ele>270</ele>
        <time>2020-05-19T12:38:38Z</time>
      </trkpt>
      <trkpt lat="43.57176" lon="5.28307">
        <ele>270</ele>
        <time>2020-05-19T12:38:50Z</time>
      </trkpt>
      <trkpt lat="43.57185" lon="5.28312">
        <ele>270</ele>
        <time>2020-05-19T12:39:02Z</time>
      </trkpt>
      <trkpt lat="43.57192" lon="5.28321">
        <ele>270</ele>
        <time>2020-05-19T12:39:12Z</time>
      </trkpt>
      <trkpt lat="43.57202" lon="5.28325">
        <ele>269</ele>
        <time>2020-05-19T12:39:21Z</time>
      </trkpt>
      <trkpt lat="43.57211" lon="5.28331">
        <ele>269</ele>
        <time>2020-05-19T12:39:31Z</time>
      </trkpt>
      <trkpt lat="43.57219" lon="5.28338">
        <ele>268</ele>
        <time>2020-05-19T12:39:41Z</time>
      </trkpt>
      <trkpt lat="43.57227" lon="5.28344">
        <ele>269</ele>
        <time>2020-05-19T12:39:50Z</time>
      </trkpt>
      <trkpt lat="43.57235" lon="5.28349">
        <ele>270</ele>
        <time>2020-05-19T12:39:59Z</time>
      </trkpt>
      <trkpt lat="43.57243" lon="5.28357">
        <ele>271</ele>
        <time>2020-05-19T12:40:07Z</time>
      </trkpt>
      <trkpt lat="43.5725" lon="5.28364">
        <ele>272</ele>
        <time>2020-05-19T12:40:16Z</time>
      </trkpt>
      <trkpt lat="43.57258" lon="5.2837">
        <ele>271</ele>
        <time>2020-05-19T12:40:26Z</time>
      </trkpt>
      <trkpt lat="43.57266" lon="5.28376">
        <ele>270</ele>
        <time>2020-05-19T12:40:35Z</time>
      </trkpt>
      <trkpt lat="43.57275" lon="5.28381">
        <ele>271</ele>
        <time>2020-05-19T12:40:45Z</time>
      </trkpt>
      <trkpt lat="43.57284" lon="5.28387">
        <ele>272</ele>
        <time>2020-05-19T12:40:55Z</time>
      </trkpt>
      <trkpt lat="43.57292" lon="5.28394">
        <ele>272</ele>
        <time>2020-05-19T12:41:04Z</time>
      </trkpt>
      <trkpt lat="43.573" lon="5.28401">
        <ele>272</ele>
        <time>2020-05-19T12:41:14Z</time>
      </trkpt>
      <trkpt lat="43.57309" lon="5.28408">
        <ele>274</ele>
        <time>2020-05-19T12:41:24Z</time>
      </trkpt>
      <trkpt lat="43.57318" lon="5.2841">
        <ele>274</ele>
        <time>2020-05-19T12:41:38Z</time>
      </trkpt>
      <trkpt lat="43.57325" lon="5.28402">
        <ele>271</ele>
        <time>2020-05-19T12:44:02Z</time>
      </trkpt>
      <trkpt lat="43.57334" lon="5.28395">
        <ele>270</ele>
        <time>2020-05-19T12:44:13Z</time>
      </trkpt>
      <trkpt lat="43.5734" lon="5.28385">
        <ele>270</ele>
        <time>2020-05-19T12:44:49Z</time>
      </trkpt>
      <trkpt lat="43.57344" lon="5.28373">
        <ele>271</ele>
        <time>2020-05-19T12:44:59Z</time>
      </trkpt>
      <trkpt lat="43.57347" lon="5.2836">
        <ele>273</ele>
        <time>2020-05-19T12:45:09Z</time>
      </trkpt>
      <trkpt lat="43.57351" lon="5.28347">
        <ele>273</ele>
        <time>2020-05-19T12:45:20Z</time>
      </trkpt>
      <trkpt lat="43.57353" lon="5.28335">
        <ele>271</ele>
        <time>2020-05-19T12:45:29Z</time>
      </trkpt>
      <trkpt lat="43.57357" lon="5.28321">
        <ele>271</ele>
        <time>2020-05-19T12:45:38Z</time>
      </trkpt>
      <trkpt lat="43.57358" lon="5.28309">
        <ele>271</ele>
        <time>2020-05-19T12:45:48Z</time>
      </trkpt>
      <trkpt lat="43.57362" lon="5.28297">
        <ele>270</ele>
        <time>2020-05-19T12:45:57Z</time>
      </trkpt>
      <trkpt lat="43.57364" lon="5.28283">
        <ele>271</ele>
        <time>2020-05-19T12:46:07Z</time>
      </trkpt>
      <trkpt lat="43.57368" lon="5.28271">
        <ele>272</ele>
        <time>2020-05-19T12:46:17Z</time>
      </trkpt>
      <trkpt lat="43.57372" lon="5.28259">
        <ele>270</ele>
        <time>2020-05-19T12:46:28Z</time>
      </trkpt>
      <trkpt lat="43.57373" lon="5.28246">
        <ele>269</ele>
        <time>2020-05-19T12:46:38Z</time>
      </trkpt>
      <trkpt lat="43.57376" lon="5.28232">
        <ele>270</ele>
        <time>2020-05-19T12:46:48Z</time>
      </trkpt>
      <trkpt lat="43.57379" lon="5.28219">
        <ele>270</ele>
        <time>2020-05-19T12:46:58Z</time>
      </trkpt>
      <trkpt lat="43.57381" lon="5.28206">
        <ele>269</ele>
        <time>2020-05-19T12:47:08Z</time>
      </trkpt>
      <trkpt lat="43.57385" lon="5.28194">
        <ele>270</ele>
        <time>2020-05-19T12:47:17Z</time>
      </trkpt>
      <trkpt lat="43.57388" lon="5.28182">
        <ele>271</ele>
        <time>2020-05-19T12:47:26Z</time>
      </trkpt>
      <trkpt lat="43.57392" lon="5.28171">
        <ele>269</ele>
        <time>2020-05-19T12:47:35Z</time>
      </trkpt>
      <trkpt lat="43.57395" lon="5.28157">
        <ele>269</ele>
        <time>2020-05-19T12:47:44Z</time>
      </trkpt>
      <trkpt lat="43.57398" lon="5.28145">
        <ele>270</ele>
        <time>2020-05-19T12:47:54Z</time>
      </trkpt>
      <trkpt lat="43.57402" lon="5.28133">
        <ele>271</ele>
        <time>2020-05-19T12:48:03Z</time>
      </trkpt>
      <trkpt lat="43.57404" lon="5.2812">
        <ele>273</ele>
        <time>2020-05-19T12:48:11Z</time>
      </trkpt>
      <trkpt lat="43.57406" lon="5.28108">
        <ele>274</ele>
        <time>2020-05-19T12:48:21Z</time>
      </trkpt>
      <trkpt lat="43.57408" lon="5.28094">
        <ele>273</ele>
        <time>2020-05-19T12:48:31Z</time>
      </trkpt>
      <trkpt lat="43.5741" lon="5.28081">
        <ele>273</ele>
        <time>2020-05-19T12:48:41Z</time>
      </trkpt>
      <trkpt lat="43.57413" lon="5.28069">
        <ele>272</ele>
        <time>2020-05-19T12:48:49Z</time>
      </trkpt>
      <trkpt lat="43.57417" lon="5.28057">
        <ele>270</ele>
        <time>2020-05-19T12:49:07Z</time>
      </trkpt>
      <trkpt lat="43.57419" lon="5.28044">
        <ele>270</ele>
        <time>2020-05-19T12:49:17Z</time>
      </trkpt>
      <trkpt lat="43.57422" lon="5.28032">
        <ele>270</ele>
        <time>2020-05-19T12:49:29Z</time>
      </trkpt>
      <trkpt lat="43.57426" lon="5.2802">
        <ele>270</ele>
        <time>2020-05-19T12:49:39Z</time>
      </trkpt>
      <trkpt lat="43.5743" lon="5.28009">
        <ele>270</ele>
        <time>2020-05-19T12:49:48Z</time>
      </trkpt>
      <trkpt lat="43.57433" lon="5.27997">
        <ele>270</ele>
        <time>2020-05-19T12:49:57Z</time>
      </trkpt>
      <trkpt lat="43.57436" lon="5.27984">
        <ele>270</ele>
        <time>2020-05-19T12:50:08Z</time>
      </trkpt>
      <trkpt lat="43.57439" lon="5.27972">
        <ele>269</ele>
        <time>2020-05-19T12:50:17Z</time>
      </trkpt>
      <trkpt lat="43.57441" lon="5.2796">
        <ele>270</ele>
        <time>2020-05-19T12:50:26Z</time>
      </trkpt>
      <trkpt lat="43.57445" lon="5.27948">
        <ele>269</ele>
        <time>2020-05-19T12:50:36Z</time>
      </trkpt>
      <trkpt lat="43.57447" lon="5.27936">
        <ele>269</ele>
        <time>2020-05-19T12:50:44Z</time>
      </trkpt>
      <trkpt lat="43.57449" lon="5.27923">
        <ele>270</ele>
        <time>2020-05-19T12:50:53Z</time>
      </trkpt>
      <trkpt lat="43.57453" lon="5.27911">
        <ele>268</ele>
        <time>2020-05-19T12:51:02Z</time>
      </trkpt>
      <trkpt lat="43.57455" lon="5.27899">
        <ele>267</ele>
        <time>2020-05-19T12:51:10Z</time>
      </trkpt>
      <trkpt lat="43.57457" lon="5.27886">
        <ele>268</ele>
        <time>2020-05-19T12:51:20Z</time>
      </trkpt>
      <trkpt lat="43.57459" lon="5.27873">
        <ele>269</ele>
        <time>2020-05-19T12:51:30Z</time>
      </trkpt>
      <trkpt lat="43.57462" lon="5.27861">
        <ele>268</ele>
        <time>2020-05-19T12:51:41Z</time>
      </trkpt>
      <trkpt lat="43.57466" lon="5.27849">
        <ele>269</ele>
        <time>2020-05-19T12:51:51Z</time>
      </trkpt>
      <trkpt lat="43.57469" lon="5.27837">
        <ele>270</ele>
        <time>2020-05-19T12:53:05Z</time>
      </trkpt>
      <trkpt lat="43.57471" lon="5.27825">
        <ele>269</ele>
        <time>2020-05-19T12:53:16Z</time>
      </trkpt>
      <trkpt lat="43.5747" lon="5.27812">
        <ele>268</ele>
        <time>2020-05-19T12:53:25Z</time>
      </trkpt>
      <trkpt lat="43.5747" lon="5.27799">
        <ele>268</ele>
        <time>2020-05-19T12:53:34Z</time>
      </trkpt>
      <trkpt lat="43.5747" lon="5.27786">
        <ele>268</ele>
        <time>2020-05-19T12:53:42Z</time>
      </trkpt>
      <trkpt lat="43.57474" lon="5.27774">
        <ele>266</ele>
        <time>2020-05-19T12:53:52Z</time>
      </trkpt>
      <trkpt lat="43.57475" lon="5.2776">
        <ele>266</ele>
        <time>2020-05-19T12:54:01Z</time>
      </trkpt>
      <trkpt lat="43.57476" lon="5.27747">
        <ele>267</ele>
        <time>2020-05-19T12:54:10Z</time>
      </trkpt>
      <trkpt lat="43.57478" lon="5.27735">
        <ele>267</ele>
        <time>2020-05-19T12:54:19Z</time>
      </trkpt>
      <trkpt lat="43.57479" lon="5.27722">
        <ele>267</ele>
        <time>2020-05-19T12:54:28Z</time>
      </trkpt>
      <trkpt lat="43.57483" lon="5.2771">
        <ele>269</ele>
        <time>2020-05-19T12:54:38Z</time>
      </trkpt>
      <trkpt lat="43.57485" lon="5.27697">
        <ele>270</ele>
        <time>2020-05-19T12:54:47Z</time>
      </trkpt>
      <trkpt lat="43.57489" lon="5.27685">
        <ele>269</ele>
        <time>2020-05-19T12:55:04Z</time>
      </trkpt>
      <trkpt lat="43.57492" lon="5.27672">
        <ele>267</ele>
        <time>2020-05-19T12:55:15Z</time>
      </trkpt>
      <trkpt lat="43.57496" lon="5.27659">
        <ele>266</ele>
        <time>2020-05-19T12:55:24Z</time>
      </trkpt>
      <trkpt lat="43.575" lon="5.27647">
        <ele>267</ele>
        <time>2020-05-19T12:55:33Z</time>
      </trkpt>
      <trkpt lat="43.57504" lon="5.27635">
        <ele>267</ele>
        <time>2020-05-19T12:55:42Z</time>
      </trkpt>
      <trkpt lat="43.57507" lon="5.27621">
        <ele>267</ele>
        <time>2020-05-19T12:55:52Z</time>
      </trkpt>
      <trkpt lat="43.57509" lon="5.27608">
        <ele>268</ele>
        <time>2020-05-19T12:56:01Z</time>
      </trkpt>
      <trkpt lat="43.57511" lon="5.27595">
        <ele>269</ele>
        <time>2020-05-19T12:56:10Z</time>
      </trkpt>
      <trkpt lat="43.57516" lon="5.27583">
        <ele>268</ele>
        <time>2020-05-19T12:56:19Z</time>
      </trkpt>
      <trkpt lat="43.57519" lon="5.2757">
        <ele>268</ele>
        <time>2020-05-19T12:56:28Z</time>
      </trkpt>
      <trkpt lat="43.57523" lon="5.27557">
        <ele>268</ele>
        <time>2020-05-19T12:56:37Z</time>
      </trkpt>
      <trkpt lat="43.57525" lon="5.27545">
        <ele>270</ele>
        <time>2020-05-19T12:56:45Z</time>
      </trkpt>
      <trkpt lat="43.57527" lon="5.27532">
        <ele>270</ele>
        <time>2020-05-19T12:56:54Z</time>
      </trkpt>
      <trkpt lat="43.5753" lon="5.27519">
        <ele>270</ele>
        <time>2020-05-19T12:57:02Z</time>
      </trkpt>
      <trkpt lat="43.57532" lon="5.27505">
        <ele>271</ele>
        <time>2020-05-19T12:57:11Z</time>
      </trkpt>
      <trkpt lat="43.57534" lon="5.27492">
        <ele>270</ele>
        <time>2020-05-19T12:57:20Z</time>
      </trkpt>
      <trkpt lat="43.57536" lon="5.27479">
        <ele>271</ele>
        <time>2020-05-19T12:57:29Z</time>
      </trkpt>
      <trkpt lat="43.57537" lon="5.27466">
        <ele>270</ele>
        <time>2020-05-19T12:57:38Z</time>
      </trkpt>
      <trkpt lat="43.57538" lon="5.27453">
        <ele>270</ele>
        <time>2020-05-19T12:57:46Z</time>
      </trkpt>
      <trkpt lat="43.57539" lon="5.27441">
        <ele>271</ele>
        <time>2020-05-19T12:57:54Z</time>
      </trkpt>
      <trkpt lat="43.57539" lon="5.27428">
        <ele>273</ele>
        <time>2020-05-19T12:58:02Z</time>
      </trkpt>
      <trkpt lat="43.5754" lon="5.27416">
        <ele>272</ele>
        <time>2020-05-19T12:58:10Z</time>
      </trkpt>
      <trkpt lat="43.57541" lon="5.27403">
        <ele>271</ele>
        <time>2020-05-19T12:58:18Z</time>
      </trkpt>
      <trkpt lat="43.57542" lon="5.2739">
        <ele>271</ele>
        <time>2020-05-19T12:58:26Z</time>
      </trkpt>
      <trkpt lat="43.57543" lon="5.27377">
        <ele>270</ele>
        <time>2020-05-19T12:58:35Z</time>
      </trkpt>
      <trkpt lat="43.57546" lon="5.27365">
        <ele>271</ele>
        <time>2020-05-19T12:58:44Z</time>
      </trkpt>
      <trkpt lat="43.57547" lon="5.27352">
        <ele>270</ele>
        <time>2020-05-19T12:58:52Z</time>
      </trkpt>
      <trkpt lat="43.57548" lon="5.27339">
        <ele>269</ele>
        <time>2020-05-19T12:59:01Z</time>
      </trkpt>
      <trkpt lat="43.5755" lon="5.27326">
        <ele>268</ele>
        <time>2020-05-19T12:59:09Z</time>
      </trkpt>
      <trkpt lat="43.57551" lon="5.27313">
        <ele>268</ele>
        <time>2020-05-19T12:59:18Z</time>
      </trkpt>
      <trkpt lat="43.5755" lon="5.27299">
        <ele>269</ele>
        <time>2020-05-19T12:59:27Z</time>
      </trkpt>
      <trkpt lat="43.57551" lon="5.27286">
        <ele>269</ele>
        <time>2020-05-19T12:59:36Z</time>
      </trkpt>
      <trkpt lat="43.57552" lon="5.27273">
        <ele>269</ele>
        <time>2020-05-19T12:59:45Z</time>
      </trkpt>
      <trkpt lat="43.57552" lon="5.27259">
        <ele>270</ele>
        <time>2020-05-19T12:59:53Z</time>
      </trkpt>
      <trkpt lat="43.57553" lon="5.27246">
        <ele>270</ele>
        <time>2020-05-19T13:00:01Z</time>
      </trkpt>
      <trkpt lat="43.57555" lon="5.27232">
        <ele>270</ele>
        <time>2020-05-19T13:00:10Z</time>
      </trkpt>
      <trkpt lat="43.57555" lon="5.27219">
        <ele>269</ele>
        <time>2020-05-19T13:00:19Z</time>
      </trkpt>
      <trkpt lat="43.57555" lon="5.27205">
        <ele>269</ele>
        <time>2020-05-19T13:00:28Z</time>
      </trkpt>
      <trkpt lat="43.57554" lon="5.27193">
        <ele>270</ele>
        <time>2020-05-19T13:00:36Z</time>
      </trkpt>
      <trkpt lat="43.57552" lon="5.27179">
        <ele>269</ele>
        <time>2020-05-19T13:00:46Z</time>
      </trkpt>
      <trkpt lat="43.57552" lon="5.27167">
        <ele>268</ele>
        <time>2020-05-19T13:00:54Z</time>
      </trkpt>
      <trkpt lat="43.57551" lon="5.27154">
        <ele>267</ele>
        <time>2020-05-19T13:01:01Z</time>
      </trkpt>
      <trkpt lat="43.57548" lon="5.27142">
        <ele>267</ele>
        <time>2020-05-19T13:01:10Z</time>
      </trkpt>
      <trkpt lat="43.57547" lon="5.2713">
        <ele>267</ele>
        <time>2020-05-19T13:01:18Z</time>
      </trkpt>
      <trkpt lat="43.57545" lon="5.27116">
        <ele>266</ele>
        <time>2020-05-19T13:01:27Z</time>
      </trkpt>
      <trkpt lat="43.57544" lon="5.27103">
        <ele>266</ele>
        <time>2020-05-19T13:01:36Z</time>
      </trkpt>
      <trkpt lat="43.57542" lon="5.2709">
        <ele>265</ele>
        <time>2020-05-19T13:01:45Z</time>
      </trkpt>
      <trkpt lat="43.57541" lon="5.27077">
        <ele>263</ele>
        <time>2020-05-19T13:01:55Z</time>
      </trkpt>
      <trkpt lat="43.57537" lon="5.27064">
        <ele>264</ele>
        <time>2020-05-19T13:02:04Z</time>
      </trkpt>
      <trkpt lat="43.57535" lon="5.2705">
        <ele>262</ele>
        <time>2020-05-19T13:02:12Z</time>
      </trkpt>
      <trkpt lat="43.57534" lon="5.27038">
        <ele>263</ele>
        <time>2020-05-19T13:02:20Z</time>
      </trkpt>
      <trkpt lat="43.57532" lon="5.27025">
        <ele>262</ele>
        <time>2020-05-19T13:02:29Z</time>
      </trkpt>
      <trkpt lat="43.5753" lon="5.27011">
        <ele>262</ele>
        <time>2020-05-19T13:02:38Z</time>
      </trkpt>
      <trkpt lat="43.57528" lon="5.26998">
        <ele>262</ele>
        <time>2020-05-19T13:02:46Z</time>
      </trkpt>
      <trkpt lat="43.57527" lon="5.26985">
        <ele>261</ele>
        <time>2020-05-19T13:02:54Z</time>
      </trkpt>
      <trkpt lat="43.57526" lon="5.26972">
        <ele>260</ele>
        <time>2020-05-19T13:03:03Z</time>
      </trkpt>
      <trkpt lat="43.57524" lon="5.26959">
        <ele>259</ele>
        <time>2020-05-19T13:03:12Z</time>
      </trkpt>
      <trkpt lat="43.5752" lon="5.26946">
        <ele>257</ele>
        <time>2020-05-19T13:03:24Z</time>
      </trkpt>
      <trkpt lat="43.57518" lon="5.26933">
        <ele>258</ele>
        <time>2020-05-19T13:03:32Z</time>
      </trkpt>
      <trkpt lat="43.57516" lon="5.2692">
        <ele>257</ele>
        <time>2020-05-19T13:03:41Z</time>
      </trkpt>
      <trkpt lat="43.57514" lon="5.26907">
        <ele>257</ele>
        <time>2020-05-19T13:03:50Z</time>
      </trkpt>
      <trkpt lat="43.57512" lon="5.26894">
        <ele>256</ele>
        <time>2020-05-19T13:03:58Z</time>
      </trkpt>
      <trkpt lat="43.5751" lon="5.26882">
        <ele>255</ele>
        <time>2020-05-19T13:04:07Z</time>
      </trkpt>
      <trkpt lat="43.57506" lon="5.2687">
        <ele>254</ele>
        <time>2020-05-19T13:04:16Z</time>
      </trkpt>
      <trkpt lat="43.57505" lon="5.26858">
        <ele>253</ele>
        <time>2020-05-19T13:04:24Z</time>
      </trkpt>
      <trkpt lat="43.57502" lon="5.26845">
        <ele>253</ele>
        <time>2020-05-19T13:04:33Z</time>
      </trkpt>
      <trkpt lat="43.57499" lon="5.26833">
        <ele>252</ele>
        <time>2020-05-19T13:04:44Z</time>
      </trkpt>
      <trkpt lat="43.57495" lon="5.26821">
        <ele>249</ele>
        <time>2020-05-19T13:04:56Z</time>
      </trkpt>
      <trkpt lat="43.57492" lon="5.26808">
        <ele>248</ele>
        <time>2020-05-19T13:05:05Z</time>
      </trkpt>
      <trkpt lat="43.5749" lon="5.26796">
        <ele>247</ele>
        <time>2020-05-19T13:05:15Z</time>
      </trkpt>
      <trkpt lat="43.57488" lon="5.26783">
        <ele>245</ele>
        <time>2020-05-19T13:05:26Z</time>
      </trkpt>
      <trkpt lat="43.57487" lon="5.26769">
        <ele>244</ele>
        <time>2020-05-19T13:05:36Z</time>
      </trkpt>
      <trkpt lat="43.57486" lon="5.26757">
        <ele>244</ele>
        <time>2020-05-19T13:05:48Z</time>
      </trkpt>
      <trkpt lat="43.57486" lon="5.26744">
        <ele>244</ele>
        <time>2020-05-19T13:05:57Z</time>
      </trkpt>
      <trkpt lat="43.57484" lon="5.26731">
        <ele>243</ele>
        <time>2020-05-19T13:06:07Z</time>
      </trkpt>
      <trkpt lat="43.57483" lon="5.26718">
        <ele>242</ele>
        <time>2020-05-19T13:06:18Z</time>
      </trkpt>
      <trkpt lat="43.57481" lon="5.26706">
        <ele>242</ele>
        <time>2020-05-19T13:06:30Z</time>
      </trkpt>
      <trkpt lat="43.5748" lon="5.26694">
        <ele>239</ele>
        <time>2020-05-19T13:06:38Z</time>
      </trkpt>
      <trkpt lat="43.57478" lon="5.2668">
        <ele>237</ele>
        <time>2020-05-19T13:06:50Z</time>
      </trkpt>
      <trkpt lat="43.57476" lon="5.26667">
        <ele>235</ele>
        <time>2020-05-19T13:07:01Z</time>
      </trkpt>
      <trkpt lat="43.57475" lon="5.26654">
        <ele>235</ele>
        <time>2020-05-19T13:07:12Z</time>
      </trkpt>
      <trkpt lat="43.5747" lon="5.26644">
        <ele>235</ele>
        <time>2020-05-19T13:07:24Z</time>
      </trkpt>
      <trkpt lat="43.57462" lon="5.26638">
        <ele>234</ele>
        <time>2020-05-19T13:11:32Z</time>
      </trkpt>
      <trkpt lat="43.57453" lon="5.26642">
        <ele>238</ele>
        <time>2020-05-19T13:13:32Z</time>
      </trkpt>
      <trkpt lat="43.57445" lon="5.26649">
        <ele>237</ele>
        <time>2020-05-19T13:13:44Z</time>
      </trkpt>
      <trkpt lat="43.57436" lon="5.26654">
        <ele>239</ele>
        <time>2020-05-19T13:13:54Z</time>
      </trkpt>
      <trkpt lat="43.57426" lon="5.26656">
        <ele>239</ele>
        <time>2020-05-19T13:14:03Z</time>
      </trkpt>
      <trkpt lat="43.57417" lon="5.26661">
        <ele>237</ele>
        <time>2020-05-19T13:14:14Z</time>
      </trkpt>
      <trkpt lat="43.57408" lon="5.26664">
        <ele>237</ele>
        <time>2020-05-19T13:14:23Z</time>
      </trkpt>
      <trkpt lat="43.57399" lon="5.26667">
        <ele>237</ele>
        <time>2020-05-19T13:14:31Z</time>
      </trkpt>
      <trkpt lat="43.5739" lon="5.26666">
        <ele>237</ele>
        <time>2020-05-19T13:14:39Z</time>
      </trkpt>
      <trkpt lat="43.5738" lon="5.26668">
        <ele>236</ele>
        <time>2020-05-19T13:14:49Z</time>
      </trkpt>
      <trkpt lat="43.57371" lon="5.2667">
        <ele>237</ele>
        <time>2020-05-19T13:15:02Z</time>
      </trkpt>
      <trkpt lat="43.57361" lon="5.26671">
        <ele>238</ele>
        <time>2020-05-19T13:16:05Z</time>
      </trkpt>
      <trkpt lat="43.57353" lon="5.26679">
        <ele>241</ele>
        <time>2020-05-19T13:16:15Z</time>
      </trkpt>
      <trkpt lat="43.57346" lon="5.26688">
        <ele>243</ele>
        <time>2020-05-19T13:16:26Z</time>
      </trkpt>
      <trkpt lat="43.57341" lon="5.26698">
        <ele>242</ele>
        <time>2020-05-19T13:16:42Z</time>
      </trkpt>
      <trkpt lat="43.57335" lon="5.26708">
        <ele>242</ele>
        <time>2020-05-19T13:16:53Z</time>
      </trkpt>
      <trkpt lat="43.57327" lon="5.26717">
        <ele>243</ele>
        <time>2020-05-19T13:17:02Z</time>
      </trkpt>
      <trkpt lat="43.57321" lon="5.26727">
        <ele>243</ele>
        <time>2020-05-19T13:17:12Z</time>
      </trkpt>
      <trkpt lat="43.57314" lon="5.26738">
        <ele>244</ele>
        <time>2020-05-19T13:17:21Z</time>
      </trkpt>
      <trkpt lat="43.57308" lon="5.26748">
        <ele>242</ele>
        <time>2020-05-19T13:17:32Z</time>
      </trkpt>
      <trkpt lat="43.57303" lon="5.26758">
        <ele>243</ele>
        <time>2020-05-19T13:17:43Z</time>
      </trkpt>
      <trkpt lat="43.57295" lon="5.26767">
        <ele>242</ele>
        <time>2020-05-19T13:17:53Z</time>
      </trkpt>
      <trkpt lat="43.57287" lon="5.26773">
        <ele>244</ele>
        <time>2020-05-19T13:18:02Z</time>
      </trkpt>
      <trkpt lat="43.57279" lon="5.26778">
        <ele>242</ele>
        <time>2020-05-19T13:18:11Z</time>
      </trkpt>
      <trkpt lat="43.5727" lon="5.26784">
        <ele>241</ele>
        <time>2020-05-19T13:18:22Z</time>
      </trkpt>
      <trkpt lat="43.57261" lon="5.26792">
        <ele>241</ele>
        <time>2020-05-19T13:18:31Z</time>
      </trkpt>
      <trkpt lat="43.57253" lon="5.268">
        <ele>243</ele>
        <time>2020-05-19T13:18:42Z</time>
      </trkpt>
      <trkpt lat="43.57245" lon="5.26806">
        <ele>244</ele>
        <time>2020-05-19T13:18:52Z</time>
      </trkpt>
      <trkpt lat="43.57237" lon="5.26812">
        <ele>245</ele>
        <time>2020-05-19T13:19:02Z</time>
      </trkpt>
      <trkpt lat="43.57228" lon="5.26819">
        <ele>244</ele>
        <time>2020-05-19T13:19:12Z</time>
      </trkpt>
      <trkpt lat="43.57221" lon="5.26827">
        <ele>244</ele>
        <time>2020-05-19T13:19:21Z</time>
      </trkpt>
      <trkpt lat="43.57213" lon="5.26832">
        <ele>244</ele>
        <time>2020-05-19T13:19:30Z</time>
      </trkpt>
      <trkpt lat="43.57206" lon="5.2684">
        <ele>246</ele>
        <time>2020-05-19T13:19:40Z</time>
      </trkpt>
      <trkpt lat="43.57198" lon="5.26849">
        <ele>247</ele>
        <time>2020-05-19T13:19:49Z</time>
      </trkpt>
      <trkpt lat="43.5719" lon="5.26858">
        <ele>247</ele>
        <time>2020-05-19T13:19:59Z</time>
      </trkpt>
      <trkpt lat="43.57184" lon="5.26867">
        <ele>248</ele>
        <time>2020-05-19T13:20:10Z</time>
      </trkpt>
      <trkpt lat="43.57178" lon="5.26878">
        <ele>248</ele>
        <time>2020-05-19T13:20:20Z</time>
      </trkpt>
      <trkpt lat="43.57171" lon="5.26887">
        <ele>248</ele>
        <time>2020-05-19T13:20:29Z</time>
      </trkpt>
      <trkpt lat="43.57163" lon="5.26896">
        <ele>248</ele>
        <time>2020-05-19T13:20:38Z</time>
      </trkpt>
      <trkpt lat="43.57157" lon="5.26904">
        <ele>246</ele>
        <time>2020-05-19T13:20:48Z</time>
      </trkpt>
      <trkpt lat="43.5715" lon="5.26913">
        <ele>246</ele>
        <time>2020-05-19T13:20:57Z</time>
      </trkpt>
      <trkpt lat="43.57143" lon="5.26921">
        <ele>246</ele>
        <time>2020-05-19T13:21:06Z</time>
      </trkpt>
      <trkpt lat="43.57137" lon="5.26932">
        <ele>248</ele>
        <time>2020-05-19T13:21:15Z</time>
      </trkpt>
      <trkpt lat="43.5713" lon="5.2694">
        <ele>248</ele>
        <time>2020-05-19T13:21:23Z</time>
      </trkpt>
      <trkpt lat="43.57121" lon="5.26945">
        <ele>248</ele>
        <time>2020-05-19T13:21:32Z</time>
      </trkpt>
      <trkpt lat="43.57115" lon="5.26955">
        <ele>250</ele>
        <time>2020-05-19T13:21:47Z</time>
      </trkpt>
      <trkpt lat="43.57111" lon="5.26968">
        <ele>249</ele>
        <time>2020-05-19T13:21:58Z</time>
      </trkpt>
      <trkpt lat="43.57105" lon="5.26979">
        <ele>249</ele>
        <time>2020-05-19T13:22:08Z</time>
      </trkpt>
      <trkpt lat="43.57099" lon="5.26989">
        <ele>249</ele>
        <time>2020-05-19T13:22:16Z</time>
      </trkpt>
      <trkpt lat="43.57093" lon="5.26998">
        <ele>249</ele>
        <time>2020-05-19T13:22:26Z</time>
      </trkpt>
      <trkpt lat="43.57086" lon="5.27007">
        <ele>248</ele>
        <time>2020-05-19T13:22:36Z</time>
      </trkpt>
      <trkpt lat="43.5708" lon="5.27017">
        <ele>248</ele>
        <time>2020-05-19T13:22:45Z</time>
      </trkpt>
      <trkpt lat="43.57075" lon="5.27028">
        <ele>250</ele>
        <time>2020-05-19T13:22:54Z</time>
      </trkpt>
      <trkpt lat="43.57071" lon="5.27039">
        <ele>251</ele>
        <time>2020-05-19T13:23:03Z</time>
      </trkpt>
      <trkpt lat="43.57065" lon="5.2705">
        <ele>251</ele>
        <time>2020-05-19T13:23:13Z</time>
      </trkpt>
      <trkpt lat="43.57061" lon="5.27063">
        <ele>249</ele>
        <time>2020-05-19T13:24:44Z</time>
      </trkpt>
      <trkpt lat="43.57057" lon="5.27074">
        <ele>249</ele>
        <time>2020-05-19T13:24:55Z</time>
      </trkpt>
      <trkpt lat="43.57051" lon="5.27085">
        <ele>249</ele>
        <time>2020-05-19T13:25:05Z</time>
      </trkpt>
      <trkpt lat="43.57046" lon="5.27095">
        <ele>251</ele>
        <time>2020-05-19T13:25:17Z</time>
      </trkpt>
      <trkpt lat="43.5704" lon="5.27105">
        <ele>251</ele>
        <time>2020-05-19T13:25:46Z</time>
      </trkpt>
      <trkpt lat="43.57034" lon="5.27116">
        <ele>250</ele>
        <time>2020-05-19T13:25:56Z</time>
      </trkpt>
      <trkpt lat="43.5703" lon="5.27128">
        <ele>250</ele>
        <time>2020-05-19T13:26:08Z</time>
      </trkpt>
      <trkpt lat="43.57028" lon="5.27141">
        <ele>250</ele>
        <time>2020-05-19T13:26:17Z</time>
      </trkpt>
      <trkpt lat="43.57029" lon="5.27153">
        <ele>250</ele>
        <time>2020-05-19T13:26:27Z</time>
      </trkpt>
      <trkpt lat="43.5703" lon="5.27166">
        <ele>250</ele>
        <time>2020-05-19T13:26:36Z</time>
      </trkpt>
      <trkpt lat="43.5703" lon="5.27179">
        <ele>249</ele>
        <time>2020-05-19T13:26:46Z</time>
      </trkpt>
      <trkpt lat="43.57027" lon="5.27191">
        <ele>250</ele>
        <time>2020-05-19T13:26:56Z</time>
      </trkpt>
      <trkpt lat="43.57025" lon="5.27203">
        <ele>251</ele>
        <time>2020-05-19T13:27:05Z</time>
      </trkpt>
      <trkpt lat="43.57023" lon="5.27217">
        <ele>252</ele>
        <time>2020-05-19T13:27:15Z</time>
      </trkpt>
      <trkpt lat="43.57021" lon="5.27229">
        <ele>252</ele>
        <time>2020-05-19T13:27:24Z</time>
      </trkpt>
      <trkpt lat="43.57016" lon="5.2724">
        <ele>254</ele>
        <time>2020-05-19T13:27:34Z</time>
      </trkpt>
      <trkpt lat="43.57008" lon="5.27245">
        <ele>254</ele>
        <time>2020-05-19T13:27:45Z</time>
      </trkpt>
      <trkpt lat="43.56998" lon="5.27246">
        <ele>253</ele>
        <time>2020-05-19T13:27:54Z</time>
      </trkpt>
      <trkpt lat="43.56989" lon="5.27249">
        <ele>254</ele>
        <time>2020-05-19T13:28:03Z</time>
      </trkpt>
      <trkpt lat="43.5698" lon="5.27254">
        <ele>255</ele>
        <time>2020-05-19T13:28:12Z</time>
      </trkpt>
      <trkpt lat="43.56971" lon="5.27259">
        <ele>255</ele>
        <time>2020-05-19T13:28:22Z</time>
      </trkpt>
      <trkpt lat="43.56962" lon="5.27263">
        <ele>253</ele>
        <time>2020-05-19T13:28:32Z</time>
      </trkpt>
      <trkpt lat="43.56953" lon="5.27263">
        <ele>254</ele>
        <time>2020-05-19T13:28:41Z</time>
      </trkpt>
      <trkpt lat="43.56944" lon="5.27262">
        <ele>253</ele>
        <time>2020-05-19T13:28:51Z</time>
      </trkpt>
      <trkpt lat="43.56934" lon="5.27261">
        <ele>254</ele>
        <time>2020-05-19T13:29:01Z</time>
      </trkpt>
      <trkpt lat="43.56925" lon="5.27259">
        <ele>255</ele>
        <time>2020-05-19T13:29:11Z</time>
      </trkpt>
      <trkpt lat="43.56916" lon="5.27263">
        <ele>255</ele>
        <time>2020-05-19T13:29:18Z</time>
      </trkpt>
      <trkpt lat="43.56907" lon="5.27267">
        <ele>253</ele>
        <time>2020-05-19T13:30:24Z</time>
      </trkpt>
      <trkpt lat="43.56898" lon="5.2727">
        <ele>251</ele>
        <time>2020-05-19T13:31:03Z</time>
      </trkpt>
      <trkpt lat="43.56888" lon="5.27268">
        <ele>254</ele>
        <time>2020-05-19T13:31:15Z</time>
      </trkpt>
      <trkpt lat="43.5688" lon="5.27262">
        <ele>256</ele>
        <time>2020-05-19T13:31:50Z</time>
      </trkpt>
      <trkpt lat="43.56873" lon="5.27253">
        <ele>257</ele>
        <time>2020-05-19T13:32:00Z</time>
      </trkpt>
      <trkpt lat="43.56866" lon="5.27244">
        <ele>259</ele>
        <time>2020-05-19T13:32:11Z</time>
      </trkpt>
      <trkpt lat="43.56859" lon="5.27235">
        <ele>258</ele>
        <time>2020-05-19T13:32:24Z</time>
      </trkpt>
      <trkpt lat="43.56853" lon="5.27226">
        <ele>259</ele>
        <time>2020-05-19T13:32:35Z</time>
      </trkpt>
      <trkpt lat="43.56845" lon="5.27219">
        <ele>261</ele>
        <time>2020-05-19T13:32:44Z</time>
      </trkpt>
      <trkpt lat="43.56839" lon="5.27209">
        <ele>260</ele>
        <time>2020-05-19T13:32:55Z</time>
      </trkpt>
      <trkpt lat="43.56832" lon="5.272">
        <ele>260</ele>
        <time>2020-05-19T13:33:03Z</time>
      </trkpt>
      <trkpt lat="43.56823" lon="5.27196">
        <ele>257</ele>
        <time>2020-05-19T13:33:13Z</time>
      </trkpt>
      <trkpt lat="43.56815" lon="5.27189">
        <ele>258</ele>
        <time>2020-05-19T13:33:23Z</time>
      </trkpt>
      <trkpt lat="43.56806" lon="5.27189">
        <ele>255</ele>
        <time>2020-05-19T13:38:12Z</time>
      </trkpt>
      <trkpt lat="43.56797" lon="5.27192">
        <ele>255</ele>
        <time>2020-05-19T13:38:23Z</time>
      </trkpt>
      <trkpt lat="43.56788" lon="5.27194">
        <ele>256</ele>
        <time>2020-05-19T13:38:33Z</time>
      </trkpt>
      <trkpt lat="43.56779" lon="5.272">
        <ele>256</ele>
        <time>2020-05-19T13:38:43Z</time>
      </trkpt>
      <trkpt lat="43.56773" lon="5.27209">
        <ele>257</ele>
        <time>2020-05-19T13:38:53Z</time>
      </trkpt>
      <trkpt lat="43.56766" lon="5.27218">
        <ele>256</ele>
        <time>2020-05-19T13:39:02Z</time>
      </trkpt>
      <trkpt lat="43.56764" lon="5.27231">
        <ele>255</ele>
        <time>2020-05-19T13:39:12Z</time>
      </trkpt>
      <trkpt lat="43.56763" lon="5.27244">
        <ele>254</ele>
        <time>2020-05-19T13:39:21Z</time>
      </trkpt>
      <trkpt lat="43.5676" lon="5.27257">
        <ele>255</ele>
        <time>2020-05-19T13:39:30Z</time>
      </trkpt>
      <trkpt lat="43.56756" lon="5.27269">
        <ele>254</ele>
        <time>2020-05-19T13:39:39Z</time>
      </trkpt>
      <trkpt lat="43.56751" lon="5.2728">
        <ele>254</ele>
        <time>2020-05-19T13:39:48Z</time>
      </trkpt>
      <trkpt lat="43.56748" lon="5.27292">
        <ele>256</ele>
        <time>2020-05-19T13:39:57Z</time>
      </trkpt>
      <trkpt lat="43.56743" lon="5.27304">
        <ele>256</ele>
        <time>2020-05-19T13:40:07Z</time>
      </trkpt>
      <trkpt lat="43.56739" lon="5.27316">
        <ele>256</ele>
        <time>2020-05-19T13:40:17Z</time>
      </trkpt>
      <trkpt lat="43.56737" lon="5.2733">
        <ele>256</ele>
        <time>2020-05-19T13:40:26Z</time>
      </trkpt>
      <trkpt lat="43.56734" lon="5.27342">
        <ele>256</ele>
        <time>2020-05-19T13:40:38Z</time>
      </trkpt>
      <trkpt lat="43.56736" lon="5.27355">
        <ele>254</ele>
        <time>2020-05-19T13:40:48Z</time>
      </trkpt>
      <trkpt lat="43.56735" lon="5.27368">
        <ele>254</ele>
        <time>2020-05-19T13:40:59Z</time>
      </trkpt>
      <trkpt lat="43.56733" lon="5.27381">
        <ele>255</ele>
        <time>2020-05-19T13:41:10Z</time>
      </trkpt>
      <trkpt lat="43.56731" lon="5.27394">
        <ele>255</ele>
        <time>2020-05-19T13:41:18Z</time>
      </trkpt>
      <trkpt lat="43.5673" lon="5.27407">
        <ele>255</ele>
        <time>2020-05-19T13:41:28Z</time>
      </trkpt>
      <trkpt lat="43.56729" lon="5.2742">
        <ele>254</ele>
        <time>2020-05-19T13:41:38Z</time>
      </trkpt>
      <trkpt lat="43.56727" lon="5.27433">
        <ele>254</ele>
        <time>2020-05-19T13:41:48Z</time>
      </trkpt>
      <trkpt lat="43.56724" lon="5.27446">
        <ele>256</ele>
        <time>2020-05-19T13:41:57Z</time>
      </trkpt>
      <trkpt lat="43.56722" lon="5.27459">
        <ele>257</ele>
        <time>2020-05-19T13:42:06Z</time>
      </trkpt>
      <trkpt lat="43.56721" lon="5.27473">
        <ele>257</ele>
        <time>2020-05-19T13:42:17Z</time>
      </trkpt>
      <trkpt lat="43.56719" lon="5.27485">
        <ele>256</ele>
        <time>2020-05-19T13:42:26Z</time>
      </trkpt>
      <trkpt lat="43.56719" lon="5.27498">
        <ele>256</ele>
        <time>2020-05-19T13:42:34Z</time>
      </trkpt>
      <trkpt lat="43.56716" lon="5.2751">
        <ele>256</ele>
        <time>2020-05-19T13:42:44Z</time>
      </trkpt>
      <trkpt lat="43.56714" lon="5.27523">
        <ele>255</ele>
        <time>2020-05-19T13:42:54Z</time>
      </trkpt>
      <trkpt lat="43.56712" lon="5.27535">
        <ele>256</ele>
        <time>2020-05-19T13:43:03Z</time>
      </trkpt>
      <trkpt lat="43.56711" lon="5.27548">
        <ele>256</ele>
        <time>2020-05-19T13:43:12Z</time>
      </trkpt>
      <trkpt lat="43.56709" lon="5.2756">
        <ele>255</ele>
        <time>2020-05-19T13:43:21Z</time>
      </trkpt>
      <trkpt lat="43.56705" lon="5.27572">
        <ele>256</ele>
        <time>2020-05-19T13:43:30Z</time>
      </trkpt>
      <trkpt lat="43.56703" lon="5.27585">
        <ele>257</ele>
        <time>2020-05-19T13:43:39Z</time>
      </trkpt>
      <trkpt lat="43.567" lon="5.27597">
        <ele>257</ele>
        <time>2020-05-19T13:43:48Z</time>
      </trkpt>
      <trkpt lat="43.56698" lon="5.27609">
        <ele>258</ele>
        <time>2020-05-19T13:44:22Z</time>
      </trkpt>
      <trkpt lat="43.56694" lon="5.27621">
        <ele>256</ele>
        <time>2020-05-19T13:44:32Z</time>
      </trkpt>
      <trkpt lat="43.56692" lon="5.27633">
        <ele>257</ele>
        <time>2020-05-19T13:44:40Z</time>
      </trkpt>
      <trkpt lat="43.56687" lon="5.27645">
        <ele>257</ele>
        <time>2020-05-19T13:44:49Z</time>
      </trkpt>
      <trkpt lat="43.56683" lon="5.27657">
        <ele>258</ele>
        <time>2020-05-19T13:44:57Z</time>
      </trkpt>
      <trkpt lat="43.56682" lon="5.27669">
        <ele>259</ele>
        <time>2020-05-19T13:45:07Z</time>
      </trkpt>
      <trkpt lat="43.5668" lon="5.27683">
        <ele>260</ele>
        <time>2020-05-19T13:45:16Z</time>
      </trkpt>
      <trkpt lat="43.56677" lon="5.27695">
        <ele>259</ele>
        <time>2020-05-19T13:45:26Z</time>
      </trkpt>
      <trkpt lat="43.56673" lon="5.27706">
        <ele>258</ele>
        <time>2020-05-19T13:45:35Z</time>
      </trkpt>
      <trkpt lat="43.56673" lon="5.27719">
        <ele>260</ele>
        <time>2020-05-19T13:45:44Z</time>
      </trkpt>
      <trkpt lat="43.56671" lon="5.27733">
        <ele>258</ele>
        <time>2020-05-19T13:45:56Z</time>
      </trkpt>
      <trkpt lat="43.56669" lon="5.27745">
        <ele>259</ele>
        <time>2020-05-19T13:46:05Z</time>
      </trkpt>
      <trkpt lat="43.56667" lon="5.27758">
        <ele>259</ele>
        <time>2020-05-19T13:46:14Z</time>
      </trkpt>
      <trkpt lat="43.56665" lon="5.27772">
        <ele>260</ele>
        <time>2020-05-19T13:46:23Z</time>
      </trkpt>
      <trkpt lat="43.56663" lon="5.27785">
        <ele>260</ele>
        <time>2020-05-19T13:46:32Z</time>
      </trkpt>
      <trkpt lat="43.56662" lon="5.27799">
        <ele>260</ele>
        <time>2020-05-19T13:46:41Z</time>
      </trkpt>
      <trkpt lat="43.56659" lon="5.2781">
        <ele>261</ele>
        <time>2020-05-19T13:46:49Z</time>
      </trkpt>
      <trkpt lat="43.56656" lon="5.27822">
        <ele>261</ele>
        <time>2020-05-19T13:46:58Z</time>
      </trkpt>
      <trkpt lat="43.56652" lon="5.27835">
        <ele>262</ele>
        <time>2020-05-19T13:47:07Z</time>
      </trkpt>
      <trkpt lat="43.56651" lon="5.27847">
        <ele>261</ele>
        <time>2020-05-19T13:47:16Z</time>
      </trkpt>
      <trkpt lat="43.56649" lon="5.2786">
        <ele>261</ele>
        <time>2020-05-19T13:47:25Z</time>
      </trkpt>
      <trkpt lat="43.56648" lon="5.27873">
        <ele>261</ele>
        <time>2020-05-19T13:47:34Z</time>
      </trkpt>
      <trkpt lat="43.56645" lon="5.27886">
        <ele>261</ele>
        <time>2020-05-19T13:47:42Z</time>
      </trkpt>
      <trkpt lat="43.56642" lon="5.27898">
        <ele>260</ele>
        <time>2020-05-19T13:47:50Z</time>
      </trkpt>
      <trkpt lat="43.56638" lon="5.2791">
        <ele>259</ele>
        <time>2020-05-19T13:48:00Z</time>
      </trkpt>
      <trkpt lat="43.56636" lon="5.27923">
        <ele>259</ele>
        <time>2020-05-19T13:48:11Z</time>
      </trkpt>
      <trkpt lat="43.56633" lon="5.27935">
        <ele>258</ele>
        <time>2020-05-19T13:48:20Z</time>
      </trkpt>
      <trkpt lat="43.5663" lon="5.27947">
        <ele>260</ele>
        <time>2020-05-19T13:48:28Z</time>
      </trkpt>
      <trkpt lat="43.56626" lon="5.2796">
        <ele>261</ele>
        <time>2020-05-19T13:48:39Z</time>
      </trkpt>
      <trkpt lat="43.56623" lon="5.27972">
        <ele>261</ele>
        <time>2020-05-19T13:48:48Z</time>
      </trkpt>
      <trkpt lat="43.5662" lon="5.27984">
        <ele>261</ele>
        <time>2020-05-19T13:48:57Z</time>
      </trkpt>
      <trkpt lat="43.56617" lon="5.27996">
        <ele>261</ele>
        <time>2020-05-19T13:49:05Z</time>
      </trkpt>
      <trkpt lat="43.56613" lon="5.28007">
        <ele>261</ele>
        <time>2020-05-19T13:49:15Z</time>
      </trkpt>
      <trkpt lat="43.5661" lon="5.28019">
        <ele>262</ele>
        <time>2020-05-19T13:49:25Z</time>
      </trkpt>
      <trkpt lat="43.56607" lon="5.28032">
        <ele>263</ele>
        <time>2020-05-19T13:49:35Z</time>
      </trkpt>
      <trkpt lat="43.56603" lon="5.28045">
        <ele>262</ele>
        <time>2020-05-19T13:49:45Z</time>
      </trkpt>
      <trkpt lat="43.56602" lon="5.28058">
        <ele>262</ele>
        <time>2020-05-19T13:52:39Z</time>
      </trkpt>
      <trkpt lat="43.56598" lon="5.2807">
        <ele>263</ele>
        <time>2020-05-19T13:52:50Z</time>
      </trkpt>
      <trkpt lat="43.56595" lon="5.28082">
        <ele>264</ele>
        <time>2020-05-19T13:52:59Z</time>
      </trkpt>
      <trkpt lat="43.56594" lon="5.28095">
        <ele>264</ele>
        <time>2020-05-19T13:53:10Z</time>
      </trkpt>
      <trkpt lat="43.5659" lon="5.28108">
        <ele>265</ele>
        <time>2020-05-19T13:53:20Z</time>
      </trkpt>
      <trkpt lat="43.56589" lon="5.28121">
        <ele>265</ele>
        <time>2020-05-19T13:53:31Z</time>
      </trkpt>
      <trkpt lat="43.56587" lon="5.28135">
        <ele>264</ele>
        <time>2020-05-19T13:53:42Z</time>
      </trkpt>
      <trkpt lat="43.56585" lon="5.28147">
        <ele>265</ele>
        <time>2020-05-19T13:53:52Z</time>
      </trkpt>
      <trkpt lat="43.56583" lon="5.28159">
        <ele>265</ele>
        <time>2020-05-19T13:54:00Z</time>
      </trkpt>
      <trkpt lat="43.56581" lon="5.28172">
        <ele>267</ele>
        <time>2020-05-19T13:54:09Z</time>
      </trkpt>
      <trkpt lat="43.5658" lon="5.28184">
        <ele>267</ele>
        <time>2020-05-19T13:54:19Z</time>
      </trkpt>
      <trkpt lat="43.56578" lon="5.28198">
        <ele>267</ele>
        <time>2020-05-19T13:54:29Z</time>
      </trkpt>
      <trkpt lat="43.56577" lon="5.28211">
        <ele>266</ele>
        <time>2020-05-19T13:54:38Z</time>
      </trkpt>
      <trkpt lat="43.56576" lon="5.28224">
        <ele>266</ele>
        <time>2020-05-19T13:54:47Z</time>
      </trkpt>
      <trkpt lat="43.56574" lon="5.28237">
        <ele>266</ele>
        <time>2020-05-19T13:54:56Z</time>
      </trkpt>
      <trkpt lat="43.56571" lon="5.28249">
        <ele>267</ele>
        <time>2020-05-19T13:55:04Z</time>
      </trkpt>
      <trkpt lat="43.5657" lon="5.28263">
        <ele>267</ele>
        <time>2020-05-19T13:55:13Z</time>
      </trkpt>
      <trkpt lat="43.5657" lon="5.28276">
        <ele>267</ele>
        <time>2020-05-19T13:55:22Z</time>
      </trkpt>
      <trkpt lat="43.56569" lon="5.28289">
        <ele>267</ele>
        <time>2020-05-19T13:55:31Z</time>
      </trkpt>
      <trkpt lat="43.56569" lon="5.28302">
        <ele>266</ele>
        <time>2020-05-19T13:55:40Z</time>
      </trkpt>
      <trkpt lat="43.56569" lon="5.28315">
        <ele>267</ele>
        <time>2020-05-19T13:55:50Z</time>
      </trkpt>
      <trkpt lat="43.5657" lon="5.28328">
        <ele>267</ele>
        <time>2020-05-19T13:56:06Z</time>
      </trkpt>
      <trkpt lat="43.56569" lon="5.28341">
        <ele>268</ele>
        <time>2020-05-19T13:56:26Z</time>
      </trkpt>
      <trkpt lat="43.56573" lon="5.28354">
        <ele>267</ele>
        <time>2020-05-19T13:56:43Z</time>
      </trkpt>
      <trkpt lat="43.56576" lon="5.28366">
        <ele>269</ele>
        <time>2020-05-19T13:58:39Z</time>
      </trkpt>
      <trkpt lat="43.56579" lon="5.28379">
        <ele>269</ele>
        <time>2020-05-19T13:58:50Z</time>
      </trkpt>
      <trkpt lat="43.56582" lon="5.28391">
        <ele>268</ele>
        <time>2020-05-19T13:59:00Z</time>
      </trkpt>
      <trkpt lat="43.56584" lon="5.28404">
        <ele>269</ele>
        <time>2020-05-19T13:59:10Z</time>
      </trkpt>
      <trkpt lat="43.56588" lon="5.28415">
        <ele>268</ele>
        <time>2020-05-19T13:59:19Z</time>
      </trkpt>
      <trkpt lat="43.56592" lon="5.28426">
        <ele>268</ele>
        <time>2020-05-19T13:59:28Z</time>
      </trkpt>
      <trkpt lat="43.56592" lon="5.2844">
        <ele>268</ele>
        <time>2020-05-19T13:59:37Z</time>
      </trkpt>
      <trkpt lat="43.56592" lon="5.28453">
        <ele>267</ele>
        <time>2020-05-19T13:59:45Z</time>
      </trkpt>
      <trkpt lat="43.56591" lon="5.28466">
        <ele>269</ele>
        <time>2020-05-19T13:59:55Z</time>
      </trkpt>
      <trkpt lat="43.5659" lon="5.28479">
        <ele>269</ele>
        <time>2020-05-19T14:00:03Z</time>
      </trkpt>
      <trkpt lat="43.56588" lon="5.28492">
        <ele>268</ele>
        <time>2020-05-19T14:00:12Z</time>
      </trkpt>
      <trkpt lat="43.56585" lon="5.28505">
        <ele>268</ele>
        <time>2020-05-19T14:00:20Z</time>
      </trkpt>
      <trkpt lat="43.56583" lon="5.28517">
        <ele>267</ele>
        <time>2020-05-19T14:00:28Z</time>
      </trkpt>
      <trkpt lat="43.56581" lon="5.2853">
        <ele>268</ele>
        <time>2020-05-19T14:00:38Z</time>
      </trkpt>
      <trkpt lat="43.56579" lon="5.28542">
        <ele>267</ele>
        <time>2020-05-19T14:00:46Z</time>
      </trkpt>
      <trkpt lat="43.56578" lon="5.28555">
        <ele>268</ele>
        <time>2020-05-19T14:00:55Z</time>
      </trkpt>
      <trkpt lat="43.56577" lon="5.28569">
        <ele>267</ele>
        <time>2020-05-19T14:01:05Z</time>
      </trkpt>
      <trkpt lat="43.56576" lon="5.28581">
        <ele>268</ele>
        <time>2020-05-19T14:01:14Z</time>
      </trkpt>
      <trkpt lat="43.56576" lon="5.28594">
        <ele>269</ele>
        <time>2020-05-19T14:01:22Z</time>
      </trkpt>
      <trkpt lat="43.5658" lon="5.28606">
        <ele>268</ele>
        <time>2020-05-19T14:01:31Z</time>
      </trkpt>
      <trkpt lat="43.56581" lon="5.2862">
        <ele>268</ele>
        <time>2020-05-19T14:01:40Z</time>
      </trkpt>
      <trkpt lat="43.56585" lon="5.28632">
        <ele>268</ele>
        <time>2020-05-19T14:01:50Z</time>
      </trkpt>
      <trkpt lat="43.56586" lon="5.28645">
        <ele>267</ele>
        <time>2020-05-19T14:01:59Z</time>
      </trkpt>
      <trkpt lat="43.56588" lon="5.28658">
        <ele>267</ele>
        <time>2020-05-19T14:02:08Z</time>
      </trkpt>
      <trkpt lat="43.56588" lon="5.28672">
        <ele>266</ele>
        <time>2020-05-19T14:02:17Z</time>
      </trkpt>
      <trkpt lat="43.56588" lon="5.28685">
        <ele>267</ele>
        <time>2020-05-19T14:02:27Z</time>
      </trkpt>
      <trkpt lat="43.56587" lon="5.28698">
        <ele>267</ele>
        <time>2020-05-19T14:02:36Z</time>
      </trkpt>
      <trkpt lat="43.56585" lon="5.28711">
        <ele>266</ele>
        <time>2020-05-19T14:02:47Z</time>
      </trkpt>
      <trkpt lat="43.56585" lon="5.28724">
        <ele>265</ele>
        <time>2020-05-19T14:02:57Z</time>
      </trkpt>
      <trkpt lat="43.56583" lon="5.28737">
        <ele>265</ele>
        <time>2020-05-19T14:03:07Z</time>
      </trkpt>
      <trkpt lat="43.56582" lon="5.2875">
        <ele>266</ele>
        <time>2020-05-19T14:03:17Z</time>
      </trkpt>
      <trkpt lat="43.5658" lon="5.28762">
        <ele>266</ele>
        <time>2020-05-19T14:03:26Z</time>
      </trkpt>
      <trkpt lat="43.56577" lon="5.28775">
        <ele>268</ele>
        <time>2020-05-19T14:03:38Z</time>
      </trkpt>
      <trkpt lat="43.56574" lon="5.28787">
        <ele>267</ele>
        <time>2020-05-19T14:03:52Z</time>
      </trkpt>
      <trkpt lat="43.5657" lon="5.28799">
        <ele>267</ele>
        <time>2020-05-19T14:04:03Z</time>
      </trkpt>
      <trkpt lat="43.56567" lon="5.28811">
        <ele>266</ele>
        <time>2020-05-19T14:04:14Z</time>
      </trkpt>
      <trkpt lat="43.56563" lon="5.28824">
        <ele>267</ele>
        <time>2020-05-19T14:04:23Z</time>
      </trkpt>
      <trkpt lat="43.56559" lon="5.28836">
        <ele>268</ele>
        <time>2020-05-19T14:04:32Z</time>
      </trkpt>
      <trkpt lat="43.56556" lon="5.28848">
        <ele>267</ele>
        <time>2020-05-19T14:04:42Z</time>
      </trkpt>
      <trkpt lat="43.56553" lon="5.28861">
        <ele>266</ele>
        <time>2020-05-19T14:04:52Z</time>
      </trkpt>
      <trkpt lat="43.56548" lon="5.28872">
        <ele>266</ele>
        <time>2020-05-19T14:05:05Z</time>
      </trkpt>
    </trkseg>
  </trk>
</gpx>